Time;durP1;ratioP1;P1;durP2;ratioP2;P2;SDS_P1;SDS_P2;PMS_P1;PMS_P2;Temp;Humidity;BMP_temperature;BMP_pressure;BME280_temperature;BME280_humidity;BME280_pressure;Samples;Min_cycle;Max_cycle;Signal;HPM_P1;HPM_P2
2022/08/30 07:53:06;;;;;;;9.68;3.03;;;17.50;99.90;;;;;;5043467;22;20077;-70
2022/08/30 07:55:32;;;;;;;9.55;2.40;;;17.40;99.90;;;;;;5059674;28;20041;-72
2022/08/30 07:57:58;;;;;;;8.63;2.30;;;17.50;99.90;;;;;;5049595;28;20040;-71
2022/08/30 08:00:23;;;;;;;8.32;2.15;;;17.60;99.90;;;;;;5064864;28;20546;-70
2022/08/30 08:02:49;;;;;;;8.05;2.38;;;17.70;99.90;;;;;;5066015;28;20032;-70
2022/08/30 08:05:15;;;;;;;9.05;2.45;;;17.90;99.90;;;;;;5070404;28;20021;-71
2022/08/30 08:07:40;;;;;;;8.45;2.33;;;18.10;99.90;;;;;;5068214;28;20024;-69
2022/08/30 08:10:07;;;;;;;6.70;1.98;;;18.20;99.90;;;;;;5051663;28;20075;-69
2022/08/30 08:12:33;;;;;;;9.13;2.22;;;18.20;99.90;;;;;;5066915;28;20063;-69
2022/08/30 08:14:59;;;;;;;8.85;2.45;;;18.30;99.90;;;;;;5068259;28;20077;-72
2022/08/30 08:17:24;;;;;;;10.02;2.30;;;18.30;99.90;;;;;;5069910;28;20429;-71
2022/08/30 08:19:50;;;;;;;7.72;2.15;;;18.30;99.90;;;;;;5069975;28;20029;-72
2022/08/30 08:22:16;;;;;;;9.57;2.35;;;18.30;99.90;;;;;;5058742;28;20025;-73
2022/08/30 08:24:42;;;;;;;8.40;2.17;;;18.50;99.90;;;;;;5064964;28;20114;-73
2022/08/30 08:27:07;;;;;;;7.53;2.30;;;18.60;99.90;;;;;;5054725;28;20089;-70
2022/08/30 08:29:33;;;;;;;7.00;2.15;;;18.70;99.90;;;;;;5059201;28;20027;-71
2022/08/30 08:31:59;;;;;;;8.23;2.38;;;18.70;99.90;;;;;;5067196;28;20040;-71
2022/08/30 08:34:26;;;;;;;8.45;2.40;;;18.90;99.90;;;;;;5066004;28;20036;-76
2022/08/30 08:36:52;;;;;;;7.80;2.35;;;19.10;99.90;;;;;;5066532;28;20036;-72
2022/08/30 08:39:18;;;;;;;9.07;2.30;;;19.20;99.90;;;;;;5055330;28;20599;-72
2022/08/30 08:41:50;;;;;;;9.20;2.33;;;19.30;99.90;;;;;;5066552;28;20035;-72
2022/08/30 08:44:28;;;;;;;5.28;1.88;;;19.30;99.90;;;;;;5040047;28;20036;-72
2022/08/30 08:46:57;;;;;;;9.50;2.60;;;19.30;99.90;;;;;;5067126;28;20039;-74
2022/08/30 08:49:23;;;;;;;8.80;2.38;;;19.20;99.90;;;;;;5068465;28;20033;-72
2022/08/30 08:54:45;;;;;;;6.60;2.15;;;19.10;99.90;;;;;;5055207;28;20059;-74
2022/08/30 08:57:11;;;;;;;8.60;2.30;;;19.10;99.90;;;;;;5069350;28;20036;-71
2022/08/30 08:59:37;;;;;;;11.05;2.70;;;19.20;99.90;;;;;;5069655;28;20035;-72
2022/08/30 09:02:23;;;;;;;10.40;2.70;;;19.20;99.90;;;;;;5069583;28;20410;-74
2022/08/30 09:04:52;;;;;;;6.20;2.10;;;19.20;99.90;;;;;;5067557;28;20403;-71
2022/08/30 09:07:25;;;;;;;8.65;2.58;;;19.30;99.90;;;;;;5067309;28;20028;-73
2022/08/30 09:09:51;;;;;;;12.40;2.30;;;19.30;99.90;;;;;;5062090;28;20522;-73
2022/08/30 09:12:17;;;;;;;8.07;1.98;;;19.30;99.90;;;;;;5061404;28;20040;-73
2022/08/30 09:14:48;;;;;;;9.95;2.05;;;19.40;99.90;;;;;;5066055;28;20036;-72
2022/08/30 09:17:16;;;;;;;7.13;2.42;;;19.50;99.90;;;;;;5063889;28;20033;-71
2022/08/30 09:19:55;;;;;;;6.85;1.80;;;19.60;99.90;;;;;;5058460;28;20039;-72
2022/08/30 09:22:37;;;;;;;7.72;2.15;;;19.60;99.90;;;;;;5066374;28;20134;-71
2022/08/30 09:25:12;;;;;;;8.05;2.28;;;19.70;99.90;;;;;;5046146;28;20040;-72
2022/08/30 09:27:43;;;;;;;8.63;2.25;;;19.70;99.90;;;;;;5056630;28;20061;-70
2022/08/30 09:30:19;;;;;;;10.38;2.42;;;19.80;99.90;;;;;;5034462;28;20097;-72
2022/08/30 09:32:53;;;;;;;6.40;2.00;;;19.90;99.90;;;;;;5048330;28;20082;-69
2022/08/30 09:35:35;;;;;;;8.48;2.30;;;20.00;99.90;;;;;;5063567;28;20060;-70
2022/08/30 09:38:06;;;;;;;8.80;2.70;;;20.10;99.90;;;;;;5060763;28;20118;-70
2022/08/30 09:40:41;;;;;;;7.95;2.40;;;20.30;99.90;;;;;;5047872;28;20040;-71
2022/08/30 09:43:16;;;;;;;8.48;2.45;;;20.60;99.90;;;;;;5049632;28;20048;-70
2022/08/30 09:45:46;;;;;;;10.48;2.53;;;21.00;99.90;;;;;;5064776;28;20036;-71
2022/08/30 09:48:38;;;;;;;8.52;2.53;;;21.20;99.90;;;;;;5049373;28;20033;-69
2022/08/30 09:51:06;;;;;;;10.18;2.60;;;21.40;99.90;;;;;;5067620;28;20036;-70
2022/08/30 09:53:36;;;;;;;9.75;2.33;;;21.30;99.90;;;;;;5063363;28;20053;-71
2022/08/30 09:56:17;;;;;;;8.18;2.38;;;21.20;99.90;;;;;;5050644;28;20135;-71
2022/08/30 09:58:45;;;;;;;8.50;2.33;;;21.00;99.90;;;;;;5068685;28;20037;-71
2022/08/30 10:01:23;;;;;;;9.02;2.55;;;20.90;99.90;;;;;;5068647;28;20028;-71
2022/08/30 10:04:02;;;;;;;9.98;2.40;;;20.80;99.90;;;;;;5068721;28;20032;-71
2022/08/30 10:06:43;;;;;;;7.68;2.50;;;20.70;99.90;;;;;;5068145;28;20036;-72
2022/08/30 10:09:27;;;;;;;6.90;2.20;;;20.80;99.90;;;;;;5068401;28;20059;-70
2022/08/30 10:11:58;;;;;;;6.32;2.28;;;20.90;99.90;;;;;;5050747;28;20036;-71
2022/08/30 10:14:39;;;;;;;11.38;2.33;;;21.10;99.90;;;;;;5050745;28;20036;-72
2022/08/30 10:17:15;;;;;;;8.93;2.15;;;21.30;99.90;;;;;;5050879;28;20055;-72
2022/08/30 10:20:06;;;;;;;6.88;2.17;;;21.60;99.90;;;;;;5048079;28;20124;-72
2022/08/30 10:23:15;;;;;;;6.65;2.05;;;22.00;99.90;;;;;;5064342;28;20036;-70
2022/08/30 10:26:01;;;;;;;;;;;22.30;99.90;;;;;;5065158;28;20040;-71
2022/08/30 10:28:40;;;;;;;7.32;2.00;;;22.50;99.90;;;;;;5037264;28;20361;-72
2022/08/30 10:31:26;;;;;;;;;;;22.60;99.90;;;;;;5049688;28;20059;-70
2022/08/30 10:33:58;;;;;;;11.77;2.83;;;22.70;99.90;;;;;;5057106;28;20024;-71
2022/08/30 10:36:34;;;;;;;11.73;2.55;;;22.90;99.90;;;;;;5049808;28;20028;-72
2022/08/30 10:39:02;;;;;;;9.88;2.85;;;23.00;99.90;;;;;;5067259;28;20479;-71
2022/08/30 10:41:38;;;;;;;10.82;2.38;;;23.10;99.90;;;;;;5068325;28;20032;-71
2022/08/30 10:44:16;;;;;;;7.28;2.17;;;23.20;99.90;;;;;;5070557;28;20544;-73
2022/08/30 10:47:01;;;;;;;7.13;2.35;;;23.10;99.90;;;;;;5047997;28;20091;-70
2022/08/30 10:49:33;;;;;;;9.68;2.42;;;23.00;99.90;;;;;;5052518;28;20032;-71
2022/08/30 10:52:22;;;;;;;8.75;2.28;;;22.90;99.90;;;;;;5049408;28;20040;-71
2022/08/30 10:55:04;;;;;;;12.98;2.20;;;22.90;99.90;;;;;;5060609;28;20040;-72
2022/08/30 10:57:30;;;;;;;9.15;2.55;;;23.10;99.90;;;;;;5066670;28;20024;-71
2022/08/30 11:00:09;;;;;;;11.43;2.97;;;23.10;99.90;;;;;;5067136;28;20033;-72
2022/08/30 11:03:02;;;;;;;8.60;2.72;;;23.00;99.90;;;;;;5060548;28;20041;-72
2022/08/30 11:06:00;;;;;;;8.75;2.30;;;22.90;99.90;;;;;;5041097;28;20024;-70
2022/08/30 11:08:43;;;;;;;7.47;2.47;;;23.10;99.90;;;;;;5065827;28;20051;-71
2022/08/30 11:11:19;;;;;;;5.05;1.90;;;23.20;99.90;;;;;;5066015;28;20032;-72
2022/08/30 11:13:46;;;;;;;8.63;2.20;;;23.40;99.90;;;;;;5066973;28;20117;-73
2022/08/30 11:16:17;;;;;;;9.43;2.72;;;23.50;99.90;;;;;;5067144;28;20062;-72
2022/08/30 11:18:55;;;;;;;10.13;2.40;;;23.70;98.80;;;;;;5067636;28;20043;-72
2022/08/30 11:21:30;;;;;;;9.88;2.33;;;23.80;99.30;;;;;;5066937;28;20036;-72
2022/08/30 11:24:02;;;;;;;7.32;2.10;;;23.90;98.50;;;;;;5064936;28;20029;-73
2022/08/30 11:26:47;;;;;;;9.05;2.50;;;24.00;97.00;;;;;;5048787;28;20035;-72
2022/08/30 11:29:33;;;;;;;8.60;2.35;;;24.00;96.50;;;;;;5048224;28;20817;-72
2022/08/30 11:32:11;;;;;;;10.40;2.88;;;23.70;96.80;;;;;;5066773;28;20044;-71
2022/08/30 11:34:46;;;;;;;6.63;2.13;;;23.50;97.00;;;;;;5060228;28;20538;-72
2022/08/30 11:37:40;;;;;;;8.95;2.42;;;23.40;97.80;;;;;;5065802;28;20383;-72
2022/08/30 11:40:29;;;;;;;6.60;2.03;;;23.40;97.60;;;;;;5065899;28;20463;-72
2022/08/30 11:42:55;;;;;;;7.40;2.13;;;23.50;97.90;;;;;;5057673;28;20048;-71
2022/08/30 11:45:21;;;;;;;6.10;2.08;;;23.80;97.20;;;;;;5029539;28;20032;-72
2022/08/30 11:48:27;;;;;;;5.93;1.90;;;23.80;96.40;;;;;;5047411;28;20021;-71
2022/08/30 11:51:12;;;;;;;6.00;1.92;;;23.80;96.20;;;;;;5066599;28;20075;-72
2022/08/30 11:53:59;;;;;;;7.30;2.00;;;24.10;95.80;;;;;;5048479;28;20096;-72
2022/08/30 11:56:44;;;;;;;6.78;2.17;;;24.70;94.70;;;;;;5049032;28;20119;-72
2022/08/30 11:59:28;;;;;;;7.63;2.20;;;25.00;93.40;;;;;;5049389;28;20040;-71
2022/08/30 12:01:53;;;;;;;7.57;2.20;;;25.00;93.50;;;;;;5067225;28;20035;-72
2022/08/30 12:04:19;;;;;;;9.40;2.42;;;24.80;91.00;;;;;;5048380;28;20033;-71
2022/08/30 12:06:47;;;;;;;4.57;1.83;;;24.80;92.30;;;;;;5067363;28;20021;-72
2022/08/30 12:09:22;;;;;;;7.80;2.10;;;24.70;92.60;;;;;;5066670;28;20035;-71
2022/08/30 12:11:58;;;;;;;5.68;1.90;;;24.70;92.50;;;;;;5071241;28;20083;-71
2022/08/30 12:14:36;;;;;;;5.80;2.00;;;24.70;91.90;;;;;;5053061;28;20032;-72
2022/08/30 12:19:58;;;;;;;6.38;1.98;;;24.60;91.70;;;;;;5070555;28;20055;-71
2022/08/30 12:22:26;;;;;;;6.05;2.20;;;24.60;91.30;;;;;;5070215;28;20039;-73
2022/08/30 12:24:52;;;;;;;5.15;1.80;;;24.70;86.50;;;;;;5065989;28;20153;-72
2022/08/30 12:27:29;;;;;;;6.97;2.30;;;24.80;88.90;;;;;;5066576;28;20117;-72
2022/08/30 12:30:03;;;;;;;6.82;2.13;;;25.00;83.90;;;;;;5045962;28;20040;-72
2022/08/30 12:32:29;;;;;;;7.05;2.03;;;25.00;84.00;;;;;;5066647;28;20186;-70
2022/08/30 12:34:58;;;;;;;8.07;2.05;;;24.90;83.50;;;;;;5049317;28;20029;-71
2022/08/30 12:37:33;;;;;;;5.90;1.88;;;25.00;81.50;;;;;;5068981;28;20037;-71
2022/08/30 12:40:10;;;;;;;4.40;1.70;;;25.00;81.90;;;;;;5050208;28;20041;-71
2022/08/30 12:42:48;;;;;;;7.47;2.00;;;25.10;84.20;;;;;;5045848;28;20074;-70
2022/08/30 12:45:17;;;;;;;6.57;2.00;;;25.20;78.40;;;;;;5063641;28;20036;-72
2022/08/30 12:48:04;;;;;;;5.38;1.80;;;25.00;77.40;;;;;;5062245;28;20157;-72
2022/08/30 12:50:41;;;;;;;7.15;2.10;;;24.60;80.20;;;;;;5053433;28;20490;-71
2022/08/30 12:53:11;;;;;;;6.13;1.80;;;24.30;78.80;;;;;;5061702;28;20048;-73
2022/08/30 12:55:50;;;;;;;;;;;24.00;80.30;;;;;;5045647;28;20032;-71
2022/08/30 12:58:16;;;;;;;5.80;1.83;;;23.80;80.80;;;;;;5061443;28;19947;-71
2022/08/30 13:00:44;;;;;;;5.53;1.70;;;23.80;82.40;;;;;;5064163;28;20063;-75
2022/08/30 13:03:32;;;;;;;5.15;1.63;;;24.00;81.60;;;;;;5064931;28;20039;-73
2022/08/30 13:05:58;;;;;;;4.45;2.10;;;24.30;78.80;;;;;;5035870;28;20677;-72
2022/08/30 13:08:27;;;;;;;5.85;1.88;;;24.80;76.80;;;;;;5060923;28;20035;-71
2022/08/30 13:10:55;;;;;;;4.97;2.22;;;25.40;73.90;;;;;;5058138;28;20037;-73
2022/08/30 13:13:43;;;;;;;4.43;2.10;;;26.20;72.70;;;;;;5038498;28;20483;-72
2022/08/30 13:16:11;;;;;;;5.63;1.70;;;27.10;70.20;;;;;;5038082;28;20039;-72
2022/08/30 13:18:37;;;;;;;10.18;2.30;;;28.00;66.20;;;;;;5043439;28;20043;-73
2022/08/30 13:21:09;;;;;;;6.32;1.77;;;27.50;63.60;;;;;;5063291;28;20075;-71
2022/08/30 13:23:35;;;;;;;4.88;1.77;;;26.60;64.60;;;;;;5039448;28;20935;-73
2022/08/30 13:26:01;;;;;;;4.60;1.50;;;25.90;66.10;;;;;;5037008;28;20600;-72
2022/08/30 13:28:27;;;;;;;8.75;2.05;;;25.40;68.30;;;;;;5040024;28;20036;-72
2022/08/30 13:30:53;;;;;;;6.93;1.90;;;25.00;69.50;;;;;;5059676;28;20039;-72
2022/08/30 13:33:19;;;;;;;8.35;2.00;;;24.60;70.60;;;;;;5065133;28;20031;-71
2022/08/30 13:35:45;;;;;;;7.82;2.08;;;24.30;72.10;;;;;;5039054;28;20102;-72
2022/08/30 13:38:11;;;;;;;5.72;1.95;;;24.30;69.10;;;;;;5038485;28;20115;-72
2022/08/30 13:40:36;;;;;;;5.93;2.00;;;24.50;66.10;;;;;;5031584;28;20156;-72
2022/08/30 13:43:02;;;;;;;5.63;1.98;;;24.70;64.90;;;;;;5038125;28;20037;-72
2022/08/30 13:45:28;;;;;;;4.85;1.83;;;24.80;66.20;;;;;;5058302;28;20029;-71
2022/08/30 13:47:54;;;;;;;5.20;1.75;;;24.90;64.00;;;;;;5040182;28;20028;-72
2022/08/30 13:50:19;;;;;;;6.28;2.05;;;25.00;65.50;;;;;;5054515;28;20755;-72
2022/08/30 13:52:45;;;;;;;5.82;2.00;;;25.00;64.10;;;;;;5053970;28;20055;-73
2022/08/30 13:55:12;;;;;;;4.70;1.88;;;25.00;59.50;;;;;;5053795;28;20763;-74
2022/08/30 13:57:39;;;;;;;6.22;1.90;;;25.00;61.80;;;;;;5041004;28;20546;-72
2022/08/30 14:00:08;;;;;;;4.95;1.90;;;25.10;64.00;;;;;;5054903;28;20028;-72
2022/08/30 14:02:34;;;;;;;;;;;25.20;65.90;;;;;;5058844;28;20062;-72
2022/08/30 14:04:59;;;;;;;7.05;1.90;;;25.30;65.50;;;;;;5065135;28;19988;-72
2022/08/30 14:07:25;;;;;;;4.90;1.88;;;25.30;65.70;;;;;;5036757;28;20039;-71
2022/08/30 14:09:51;;;;;;;6.95;2.13;;;25.30;65.90;;;;;;5060394;28;20028;-71
2022/08/30 14:12:16;;;;;;;6.63;1.98;;;25.40;63.70;;;;;;5040539;28;20048;-72
2022/08/30 14:14:42;;;;;;;5.53;1.80;;;25.70;63.90;;;;;;5036697;28;20032;-71
2022/08/30 14:17:08;;;;;;;5.22;1.58;;;25.80;64.60;;;;;;5060442;28;20064;-72
2022/08/30 14:19:33;;;;;;;4.95;1.75;;;25.90;63.50;;;;;;5058790;28;20109;-73
2022/08/30 14:21:59;;;;;;;5.07;1.58;;;26.00;63.20;;;;;;5031353;28;20043;-72
2022/08/30 14:24:24;;;;;;;5.72;1.90;;;26.00;63.20;;;;;;5063322;28;20024;-71
2022/08/30 14:26:50;;;;;;;3.92;1.73;;;25.90;63.70;;;;;;5043482;28;20039;-73
2022/08/30 14:29:20;;;;;;;5.65;1.73;;;25.80;64.40;;;;;;5055137;28;20178;-72
2022/08/30 14:31:47;;;;;;;5.85;1.92;;;25.80;61.80;;;;;;5035890;28;20063;-72
2022/08/30 14:34:14;;;;;;;3.85;1.60;;;25.70;61.80;;;;;;5055867;28;20032;-72
2022/08/30 14:36:42;;;;;;;4.35;1.85;;;25.80;60.30;;;;;;5056476;28;20064;-72
2022/08/30 14:39:13;;;;;;;7.90;1.85;;;25.80;60.40;;;;;;5055139;28;20067;-73
2022/08/30 14:41:46;;;;;;;11.02;1.85;;;25.80;60.90;;;;;;5039434;28;20044;-71
2022/08/30 14:44:13;;;;;;;7.47;1.70;;;25.80;62.00;;;;;;5058499;28;20056;-72
2022/08/30 14:46:39;;;;;;;5.28;1.50;;;25.70;62.00;;;;;;5060114;28;20032;-72
2022/08/30 14:49:05;;;;;;;5.47;1.60;;;25.70;63.10;;;;;;5034411;28;20056;-72
2022/08/30 14:51:31;;;;;;;6.22;2.33;;;25.70;63.70;;;;;;5056505;28;20041;-72
2022/08/30 14:53:56;;;;;;;7.93;1.90;;;25.70;63.90;;;;;;5055800;28;20071;-72
2022/08/30 14:56:22;;;;;;;4.00;1.50;;;25.80;60.90;;;;;;5034671;28;20051;-72
2022/08/30 14:58:50;;;;;;;4.53;1.63;;;25.70;59.60;;;;;;5060257;28;20094;-72
2022/08/30 15:01:17;;;;;;;7.13;1.80;;;25.50;60.80;;;;;;5055351;28;20027;-72
2022/08/30 15:03:43;;;;;;;7.85;1.80;;;25.40;60.00;;;;;;5061473;28;20062;-71
2022/08/30 15:06:09;;;;;;;5.35;1.42;;;25.40;60.30;;;;;;5039971;28;20166;-71
2022/08/30 15:08:36;;;;;;;6.35;1.63;;;25.40;61.00;;;;;;5056829;28;20082;-72
2022/08/30 15:11:10;;;;;;;4.50;1.73;;;25.60;58.90;;;;;;5031582;28;20767;-73
2022/08/30 15:13:37;;;;;;;4.35;1.50;;;25.70;59.40;;;;;;5060340;28;20037;-72
2022/08/30 15:16:16;;;;;;;4.90;1.38;;;25.70;57.60;;;;;;5060465;28;20033;-72
2022/08/30 15:18:42;;;;;;;7.18;1.88;;;25.70;56.40;;;;;;5035325;28;20029;-72
2022/08/30 15:21:08;;;;;;;5.63;1.88;;;25.70;56.80;;;;;;5033272;28;20051;-73
2022/08/30 15:23:34;;;;;;;4.80;1.80;;;25.60;57.10;;;;;;5051478;28;20029;-71
2022/08/30 15:26:00;;;;;;;4.72;1.58;;;25.70;58.00;;;;;;5032273;28;20029;-72
2022/08/30 15:28:26;;;;;;;6.18;1.67;;;25.70;57.90;;;;;;5052134;28;20131;-72
2022/08/30 15:30:51;;;;;;;6.80;2.10;;;25.80;58.00;;;;;;5057314;28;20043;-72
2022/08/30 15:33:17;;;;;;;3.78;1.60;;;25.90;57.80;;;;;;5042931;28;20036;-72
2022/08/30 15:35:43;;;;;;;4.05;1.63;;;26.00;58.70;;;;;;5057806;28;20177;-74
2022/08/30 15:38:09;;;;;;;5.63;1.50;;;26.00;57.90;;;;;;5059288;28;20024;-72
2022/08/30 15:40:35;;;;;;;5.20;1.70;;;26.00;57.60;;;;;;5055263;28;20028;-73
2022/08/30 15:43:04;;;;;;;5.40;1.73;;;26.10;57.60;;;;;;5061519;28;20029;-72
2022/08/30 15:45:30;;;;;;;4.63;1.50;;;26.00;57.30;;;;;;5060276;28;20930;-71
2022/08/30 15:47:58;;;;;;;4.82;1.60;;;26.00;56.70;;;;;;5063920;28;20037;-72
2022/08/30 15:50:25;;;;;;;3.65;1.40;;;25.90;56.50;;;;;;5047001;28;20101;-73
2022/08/30 15:52:51;;;;;;;6.50;1.40;;;25.80;56.20;;;;;;5060471;28;20127;-73
2022/08/30 15:55:16;;;;;;;5.85;1.40;;;25.60;56.80;;;;;;5042356;28;20157;-73
2022/08/30 15:57:42;;;;;;;8.20;1.92;;;25.40;56.80;;;;;;5042590;28;20058;-73
2022/08/30 16:00:09;;;;;;;4.38;1.27;;;25.40;57.90;;;;;;5063459;28;20028;-73
2022/08/30 16:02:35;;;;;;;5.57;1.50;;;25.30;58.60;;;;;;5056240;28;20036;-72
2022/08/30 16:05:02;;;;;;;4.93;1.70;;;25.40;58.60;;;;;;5059962;28;20082;-72
2022/08/30 16:07:28;;;;;;;3.85;1.70;;;25.50;58.60;;;;;;5064859;28;20081;-72
2022/08/30 16:09:54;;;;;;;4.22;1.52;;;25.70;59.90;;;;;;5045572;28;20028;-72
2022/08/30 16:12:20;;;;;;;4.68;1.33;;;25.90;59.10;;;;;;5040207;28;20036;-72
2022/08/30 16:14:45;;;;;;;4.65;1.80;;;26.20;58.80;;;;;;5063059;28;20032;-71
2022/08/30 16:17:11;;;;;;;6.75;1.80;;;26.70;57.20;;;;;;5061943;28;20025;-71
2022/08/30 16:19:37;;;;;;;3.25;1.20;;;27.00;54.90;;;;;;5062416;28;20106;-73
2022/08/30 16:22:03;;;;;;;4.90;1.55;;;27.30;53.80;;;;;;5066763;28;20032;-72
2022/08/30 16:24:28;;;;;;;4.85;1.80;;;27.50;52.70;;;;;;5058653;28;20090;-74
2022/08/30 16:26:54;;;;;;;7.28;1.45;;;27.50;52.70;;;;;;5056778;28;20885;-72
2022/08/30 16:29:20;;;;;;;6.45;1.58;;;27.40;52.90;;;;;;5061955;28;20104;-73
2022/08/30 16:31:46;;;;;;;12.73;1.85;;;27.40;53.00;;;;;;5065434;28;20048;-72
2022/08/30 16:34:14;;;;;;;5.47;1.35;;;27.40;53.30;;;;;;5053906;28;20073;-71
2022/08/30 16:36:40;;;;;;;3.92;1.40;;;27.40;52.20;;;;;;5057667;28;20029;-73
2022/08/30 16:39:07;;;;;;;5.55;1.45;;;27.20;52.00;;;;;;5059770;28;20078;-73
2022/08/30 16:41:33;;;;;;;4.70;1.42;;;27.20;52.40;;;;;;5069422;28;20033;-73
2022/08/30 16:43:59;;;;;;;5.75;1.58;;;27.30;52.90;;;;;;5069937;28;20021;-73
2022/08/30 16:46:25;;;;;;;4.60;1.40;;;27.50;52.40;;;;;;5056925;28;20441;-72
2022/08/30 16:48:51;;;;;;;5.10;1.20;;;27.60;52.20;;;;;;5069331;28;20040;-72
2022/08/30 16:51:20;;;;;;;4.85;1.60;;;27.70;52.20;;;;;;5046122;28;20135;-72
2022/08/30 16:53:46;;;;;;;4.43;1.50;;;27.60;50.10;;;;;;5051057;28;20475;-71
2022/08/30 16:56:19;;;;;;;4.95;1.38;;;27.30;50.20;;;;;;5046258;28;20032;-72
2022/08/30 16:58:46;;;;;;;4.28;1.55;;;26.70;52.10;;;;;;5045350;28;20032;-72
2022/08/30 17:01:12;;;;;;;3.55;1.25;;;26.10;54.00;;;;;;5067198;28;20024;-71
2022/08/30 17:03:39;;;;;;;4.63;1.50;;;25.60;55.10;;;;;;5043603;28;20036;-71
2022/08/30 17:06:05;;;;;;;3.45;1.20;;;25.30;55.70;;;;;;5061454;28;20397;-72
2022/08/30 17:08:31;;;;;;;5.28;1.60;;;25.00;56.10;;;;;;5062777;28;20017;-73
2022/08/30 17:10:56;;;;;;;6.55;1.70;;;24.80;56.40;;;;;;5047916;28;20040;-72
2022/08/30 17:13:22;;;;;;;5.05;1.63;;;24.70;56.80;;;;;;5053205;28;20032;-72
2022/08/30 17:15:48;;;;;;;5.57;1.70;;;24.60;57.20;;;;;;5061619;28;20047;-72
2022/08/30 17:18:15;;;;;;;6.90;1.63;;;24.50;57.50;;;;;;5043452;28;20033;-71
2022/08/30 17:20:41;;;;;;;4.35;1.30;;;24.50;58.40;;;;;;5061133;28;20091;-72
2022/08/30 17:23:07;;;;;;;3.53;1.50;;;24.60;58.60;;;;;;5051724;28;20025;-72
2022/08/30 17:25:33;;;;;;;3.97;1.42;;;24.80;58.90;;;;;;5061280;28;20047;-72
2022/08/30 17:27:59;;;;;;;4.43;1.33;;;24.80;58.90;;;;;;5051229;28;20470;-71
2022/08/30 17:30:25;;;;;;;7.05;1.63;;;24.80;59.20;;;;;;5062790;28;20028;-72
2022/08/30 17:32:52;;;;;;;4.82;1.60;;;24.80;58.70;;;;;;5061718;28;20094;-71
2022/08/30 17:35:19;;;;;;;4.30;1.30;;;24.60;57.80;;;;;;5064360;28;20604;-71
2022/08/30 17:37:46;;;;;;;6.32;1.58;;;24.40;58.90;;;;;;5046567;28;20025;-71
2022/08/30 17:40:12;;;;;;;5.93;1.40;;;24.10;60.50;;;;;;5065092;28;20020;-70
2022/08/30 17:42:39;;;;;;;5.50;1.40;;;23.80;62.10;;;;;;5063817;28;20036;-71
2022/08/30 17:45:07;;;;;;;3.88;1.25;;;23.50;63.50;;;;;;5037527;28;20033;-71
2022/08/30 17:47:33;;;;;;;5.07;1.55;;;23.30;64.50;;;;;;5066912;28;20069;-69
2022/08/30 17:49:59;;;;;;;7.43;1.45;;;23.10;64.90;;;;;;5065504;28;20484;-70
2022/08/30 17:52:25;;;;;;;5.38;1.40;;;22.90;65.80;;;;;;5064588;28;21128;-70
2022/08/30 17:54:52;;;;;;;5.07;1.60;;;22.80;66.80;;;;;;5064016;28;20130;-71
2022/08/30 17:57:18;;;;;;;4.65;1.30;;;22.60;67.40;;;;;;5059049;28;20220;-70
2022/08/30 17:59:44;;;;;;;4.53;1.30;;;22.40;67.90;;;;;;5047224;28;20509;-70
2022/08/30 18:02:11;;;;;;;7.28;1.60;;;22.30;67.70;;;;;;5060561;28;20028;-70
2022/08/30 18:04:37;;;;;;;4.70;1.50;;;22.10;68.80;;;;;;5057217;28;20466;-71
2022/08/30 18:07:03;;;;;;;6.07;1.17;;;22.00;69.40;;;;;;5059751;28;20118;-71
2022/08/30 18:09:29;;;;;;;5.03;1.30;;;21.90;70.70;;;;;;5060574;28;20104;-70
2022/08/30 18:11:54;;;;;;;4.93;1.65;;;21.80;71.90;;;;;;5067218;28;20041;-69
2022/08/30 18:14:20;;;;;;;3.85;1.30;;;21.70;73.00;;;;;;5047078;28;20062;-70
2022/08/30 18:16:46;;;;;;;4.53;1.20;;;21.50;73.90;;;;;;5066264;28;20398;-71
2022/08/30 18:19:12;;;;;;;3.95;1.50;;;21.50;75.00;;;;;;5043110;28;20037;-71
2022/08/30 18:21:38;;;;;;;3.97;1.55;;;21.40;76.10;;;;;;5048125;28;20033;-71
2022/08/30 18:24:05;;;;;;;4.75;1.50;;;21.30;77.10;;;;;;5047863;28;20028;-72
2022/08/30 18:26:31;;;;;;;5.28;1.30;;;21.20;78.70;;;;;;5063582;28;20064;-70
2022/08/30 18:28:58;;;;;;;4.55;1.33;;;21.10;80.90;;;;;;5062959;28;20028;-73
2022/08/30 18:31:24;;;;;;;3.40;1.40;;;21.00;82.00;;;;;;5058849;28;20037;-72
2022/08/30 18:33:50;;;;;;;6.63;1.90;;;20.90;83.70;;;;;;5044599;28;20052;-71
2022/08/30 18:36:16;;;;;;;5.28;1.58;;;20.80;85.40;;;;;;5064652;28;20059;-71
2022/08/30 18:38:42;;;;;;;4.93;1.48;;;20.70;86.10;;;;;;5063638;28;20556;-70
2022/08/30 18:41:09;;;;;;;3.85;1.38;;;20.60;87.60;;;;;;5061097;28;20059;-72
2022/08/30 18:43:36;;;;;;;5.93;1.33;;;20.50;89.60;;;;;;5057907;28;20048;-71
2022/08/30 18:46:05;;;;;;;6.63;1.30;;;20.40;90.00;;;;;;5041344;28;20709;-71
2022/08/30 18:48:32;;;;;;;3.45;1.25;;;20.30;90.50;;;;;;5050011;28;20028;-70
2022/08/30 18:50:58;;;;;;;5.20;1.77;;;20.20;91.30;;;;;;5047800;28;20044;-71
2022/08/30 18:53:24;;;;;;;3.70;1.30;;;20.10;91.70;;;;;;5050552;28;20496;-70
2022/08/30 18:55:50;;;;;;;5.55;1.60;;;20.10;92.10;;;;;;5065230;28;20029;-70
2022/08/30 18:58:16;;;;;;;4.63;1.33;;;19.90;92.60;;;;;;5064446;28;20032;-71
2022/08/30 19:00:42;;;;;;;4.47;1.15;;;19.90;93.00;;;;;;5063079;28;20033;-71
2022/08/30 19:03:08;;;;;;;3.88;1.50;;;19.80;92.30;;;;;;5061938;28;20128;-70
2022/08/30 19:05:34;;;;;;;4.28;1.10;;;19.80;92.80;;;;;;5046554;28;20039;-70
2022/08/30 19:08:01;;;;;;;3.67;1.35;;;19.70;93.20;;;;;;5065777;28;20035;-70
2022/08/30 19:10:28;;;;;;;3.20;1.27;;;19.60;93.40;;;;;;5063113;28;20457;-70
2022/08/30 19:12:54;;;;;;;4.35;1.27;;;19.60;94.00;;;;;;5061906;28;20048;-70
2022/08/30 19:15:20;;;;;;;4.20;1.40;;;19.50;94.40;;;;;;5065581;28;20114;-71
2022/08/30 19:17:46;;;;;;;4.60;1.60;;;19.40;94.80;;;;;;5041526;28;20565;-70
2022/08/30 19:20:18;;;;;;;6.38;2.03;;;19.30;95.30;;;;;;5047667;28;20128;-69
2022/08/30 19:22:43;;;;;;;3.13;1.10;;;19.30;95.40;;;;;;5065593;28;20041;-70
2022/08/30 19:25:10;;;;;;;4.15;1.40;;;19.30;95.80;;;;;;5068239;28;20455;-70
2022/08/30 19:27:35;;;;;;;5.32;1.30;;;19.20;96.00;;;;;;5063304;28;20158;-70
2022/08/30 19:30:03;;;;;;;6.53;1.50;;;19.10;96.20;;;;;;5063168;28;20393;-70
2022/08/30 19:32:29;;;;;;;3.53;1.17;;;19.10;96.70;;;;;;5048967;28;20085;-71
2022/08/30 19:34:54;;;;;;;4.93;1.30;;;19.00;97.00;;;;;;5063301;28;20040;-72
2022/08/30 19:37:20;;;;;;;6.85;1.77;;;19.00;97.80;;;;;;5062428;28;20115;-72
2022/08/30 19:39:46;;;;;;;4.00;1.60;;;18.90;98.20;;;;;;5049410;28;20029;-73
2022/08/30 19:42:11;;;;;;;3.58;1.30;;;18.80;98.50;;;;;;5046192;28;21030;-71
2022/08/30 19:44:37;;;;;;;3.13;1.10;;;18.80;98.80;;;;;;5061513;28;20379;-71
2022/08/30 19:47:05;;;;;;;5.75;1.42;;;18.70;99.90;;;;;;5066015;28;20340;-70
2022/08/30 19:49:32;;;;;;;4.85;1.38;;;18.70;99.90;;;;;;5067196;28;20024;-71
2022/08/30 19:51:58;;;;;;;3.97;1.30;;;18.60;99.90;;;;;;5065036;28;20101;-70
2022/08/30 19:54:23;;;;;;;7.75;1.52;;;18.50;99.90;;;;;;5065223;28;20445;-70
2022/08/30 19:56:49;;;;;;;5.85;1.58;;;18.50;99.90;;;;;;5050242;28;20075;-70
2022/08/30 19:59:15;;;;;;;3.88;1.50;;;18.40;99.90;;;;;;5065869;28;20651;-71
2022/08/30 20:01:41;;;;;;;5.55;1.50;;;18.40;99.90;;;;;;5066902;28;20044;-72
2022/08/30 20:04:07;;;;;;;6.65;1.40;;;18.30;99.90;;;;;;5060756;28;20046;-72
2022/08/30 20:06:33;;;;;;;6.75;1.92;;;18.20;99.90;;;;;;5050791;28;20035;-73
2022/08/30 20:08:59;;;;;;;4.57;1.70;;;18.20;99.90;;;;;;5066481;28;20678;-73
2022/08/30 20:11:25;;;;;;;6.68;1.83;;;18.20;99.90;;;;;;5058137;28;20148;-73
2022/08/30 20:13:51;;;;;;;6.50;1.75;;;18.10;99.90;;;;;;5067496;28;20032;-73
2022/08/30 20:16:17;;;;;;;4.45;1.50;;;18.00;99.90;;;;;;5069186;28;20032;-73
2022/08/30 20:18:43;;;;;;;8.73;1.90;;;18.00;99.90;;;;;;5067606;28;20379;-73
2022/08/30 20:21:12;;;;;;;6.03;1.80;;;17.90;99.90;;;;;;5068736;28;20028;-71
2022/08/30 20:23:38;;;;;;;5.25;1.73;;;17.90;99.90;;;;;;5069419;28;20036;-72
2022/08/30 20:26:04;;;;;;;4.75;1.67;;;17.80;99.90;;;;;;5068987;28;20515;-72
2022/08/30 20:28:30;;;;;;;7.68;2.00;;;17.80;99.90;;;;;;5081222;28;20033;-72
2022/08/30 20:30:56;;;;;;;7.63;1.80;;;17.70;99.90;;;;;;5067225;28;20070;-71
2022/08/30 20:33:23;;;;;;;5.65;1.60;;;17.70;99.90;;;;;;5069308;28;20104;-72
2022/08/30 20:35:50;;;;;;;5.57;1.98;;;17.70;99.90;;;;;;5051990;28;20065;-71
2022/08/30 20:38:20;;;;;;;6.65;1.83;;;17.70;99.90;;;;;;5041428;28;20383;-72
2022/08/30 20:40:53;;;;;;;4.45;1.92;;;17.70;99.90;;;;;;5050006;28;20078;-71
2022/08/30 20:43:22;;;;;;;7.30;2.00;;;17.60;99.90;;;;;;5068862;28;20040;-72
2022/08/30 20:45:48;;;;;;;6.43;2.30;;;17.50;99.90;;;;;;5069475;28;20040;-71
2022/08/30 20:48:15;;;;;;;8.35;3.30;;;17.40;99.90;;;;;;5066938;28;20453;-72
2022/08/30 20:50:41;;;;;;;7.72;2.60;;;17.30;99.90;;;;;;5067288;28;20067;-71
2022/08/30 20:53:06;;;;;;;5.38;2.30;;;17.20;99.90;;;;;;5068221;28;20067;-72
2022/08/30 20:55:32;;;;;;;6.03;2.60;;;17.20;99.90;;;;;;5049739;28;20032;-71
2022/08/30 20:57:58;;;;;;;7.90;1.95;;;17.10;99.90;;;;;;5069017;28;20029;-72